This is the latest recevied weather packets stored in our database for station/object SR2GKG-13. If no packets are shown the sender has not sent any weather packets the latest 10 day(s).
| Time | Temp. | Humidity | Pressure | Rain* | Wind** | Luminosity | Snow |
|---|---|---|---|---|---|---|---|
| 1788145370 | 16.67° C | 100% | 1001.8 hPa | - | - | - | - |
| 1788144470 | 16.67° C | 100% | 1001.7 hPa | - | - | - | - |
| 1788143570 | 16.67° C | 100% | 1001.8 hPa | - | - | - | - |
| 1788142670 | 16.11° C | 100% | 1001.8 hPa | - | - | - | - |
| 1788141770 | 16.11° C | 100% | 1001.9 hPa | - | - | - | - |
| 1788122867 | 18.33° C | 94% | 1001.5 hPa | - | - | - | - |
| 1788121967 | 18.33° C | 92% | 1001.5 hPa | - | - | - | - |
| 1788121067 | 18.89° C | 89% | 1001.5 hPa | - | - | - | - |
| 1788119270 | 19.44° C | 85% | 1001.5 hPa | - | - | - | - |
| 1788118367 | 20° C | 83% | 1001.4 hPa | - | - | - | - |
| 1788117467 | 20.56° C | 77% | 1001.5 hPa | - | - | - | - |
| 1788116567 | 21.11° C | 77% | 1001.2 hPa | - | - | - | - |
| 1788115667 | 20.56° C | 78% | 1001.2 hPa | - | - | - | - |
| 1788114767 | 21.11° C | 78% | 1000.9 hPa | - | - | - | - |
| 1788113866 | 20.56° C | 79% | 1000.7 hPa | - | - | - | - |
| 1788112966 | 21.11° C | 78% | 1000.6 hPa | - | - | - | - |
| 1788111166 | 21.67° C | 75% | 1000.5 hPa | - | - | - | - |
| 1788110266 | 22.78° C | 70% | 1000.4 hPa | - | - | - | - |
| 1788109366 | 23.33° C | 67% | 1000.2 hPa | - | - | - | - |
| 1788108466 | 23.89° C | 64% | 1000.1 hPa | - | - | - | - |
| 1788107566 | 23.89° C | 63% | 1000.1 hPa | - | - | - | - |
| 1788106665 | 24.44° C | 61% | 1000.1 hPa | - | - | - | - |
| 1788105765 | 25° C | 59% | 999.9 hPa | - | - | - | - |
| 1788104864 | 25.56° C | 55% | 1000 hPa | - | - | - | - |
| 1788103964 | 25° C | 59% | 1000.2 hPa | - | - | - | - |
* Rain since midnight (hover to see other rain measurements)
** Current wind speed in m/s (hover to see current wind gust speed)